Time;durP1;ratioP1;P1;durP2;ratioP2;P2;SDS_P1;SDS_P2;PMS_P1;PMS_P2;Temp;Humidity;BMP_temperature;BMP_pressure;BME280_temperature;BME280_humidity;BME280_pressure;Samples;Min_cycle;Max_cycle;Signal;HPM_P1;HPM_P2
2022/04/12 00:01:09;;;;;;;5.72;2.92;;;;;;;9.05;100.00;100963.41;5205277;28;20057;-72
2022/04/12 00:03:39;;;;;;;7.45;3.33;;;;;;;9.02;100.00;100958.34;5205562;28;20096;-71
2022/04/12 00:06:10;;;;;;;5.28;2.85;;;;;;;8.96;100.00;100961.63;5205548;28;20606;-71
2022/04/12 00:08:40;;;;;;;8.68;2.85;;;;;;;8.84;100.00;100961.03;5205470;28;20028;-72
2022/04/12 00:11:11;;;;;;;5.55;3.50;;;;;;;8.69;100.00;100966.06;5205316;28;20027;-71
2022/04/12 00:13:41;;;;;;;9.15;3.15;;;;;;;8.57;100.00;100970.75;5204917;28;20076;-72
2022/04/12 00:16:11;;;;;;;4.32;2.88;;;;;;;8.55;100.00;100958.53;5205108;28;20504;-71
2022/04/12 00:21:34;;;;;;;5.07;2.65;;;;;;;8.61;100.00;100959.78;5202631;28;20391;-71
2022/04/12 00:24:06;;;;;;;10.27;3.53;;;;;;;8.61;100.00;100954.44;5204660;28;20090;-72
2022/04/12 00:26:37;;;;;;;4.38;2.58;;;;;;;8.57;100.00;100949.38;5204990;28;20033;-71
2022/04/12 00:29:07;;;;;;;6.72;3.22;;;;;;;8.53;100.00;100949.81;5204856;28;20067;-71
2022/04/12 00:31:38;;;;;;;6.03;3.00;;;;;;;8.48;100.00;100946.75;5205031;28;20018;-72
2022/04/12 00:34:08;;;;;;;7.63;3.10;;;;;;;8.50;100.00;100942.94;5200963;28;20022;-72
2022/04/12 00:36:39;;;;;;;7.25;2.88;;;;;;;8.51;100.00;100930.41;5196761;28;20083;-72
2022/04/12 00:39:09;;;;;;;7.68;2.75;;;;;;;8.59;100.00;100932.34;5204835;28;20029;-72
2022/04/12 00:41:39;;;;;;;4.78;2.92;;;;;;;8.62;100.00;100929.34;5204652;28;20022;-72
2022/04/12 00:44:10;;;;;;;7.18;2.90;;;;;;;8.62;100.00;100924.00;5204785;28;20124;-72
2022/04/12 00:46:40;;;;;;;9.73;2.92;;;;;;;8.62;100.00;100929.34;5204653;28;20052;-70
2022/04/12 00:49:11;;;;;;;8.40;2.95;;;;;;;8.62;100.00;100926.69;5204720;28;20033;-70
2022/04/12 00:51:42;;;;;;;5.43;2.67;;;;;;;8.62;100.00;100929.34;5203269;28;20103;-71
2022/04/12 00:54:13;;;;;;;4.35;2.72;;;;;;;8.58;100.00;100923.47;5204366;28;20033;-72
2022/04/12 00:56:43;;;;;;;4.68;2.83;;;;;;;8.58;100.00;100923.47;5204743;28;20025;-72
2022/04/12 00:59:14;;;;;;;7.60;2.80;;;;;;;8.55;100.00;100921.94;5204502;28;20486;-71
2022/04/12 01:01:44;;;;;;;7.05;2.90;;;;;;;8.53;100.00;100928.41;5204653;28;20025;-72
2022/04/12 01:04:15;;;;;;;4.32;2.88;;;;;;;8.49;100.00;100924.41;5204774;28;20030;-71
2022/04/12 01:06:46;;;;;;;4.43;2.72;;;;;;;8.47;100.00;100926.34;5205237;28;20108;-71
2022/04/12 01:09:17;;;;;;;8.50;3.28;;;;;;;8.46;100.00;100920.19;5205010;28;20375;-72
2022/04/12 01:11:48;;;;;;;9.23;3.10;;;;;;;8.42;100.00;100929.47;5204990;28;20029;-72
2022/04/12 01:14:20;;;;;;;7.45;2.60;;;;;;;8.36;100.00;100926.53;5204013;28;20399;-72
2022/04/12 01:16:51;;;;;;;6.10;3.42;;;;;;;8.29;100.00;100934.31;5204547;28;20388;-72
2022/04/12 01:19:22;;;;;;;4.35;2.50;;;;;;;8.24;100.00;100931.25;5204349;28;20053;-72
2022/04/12 01:22:03;;;;;;;5.70;2.75;;;;;;;8.23;100.00;100918.88;5201866;28;20056;-71
2022/04/12 01:24:34;;;;;;;8.00;3.25;;;;;;;8.28;100.00;100921.94;5203786;28;20028;-72
2022/04/12 01:27:05;;;;;;;6.78;3.28;;;;;;;8.30;100.00;100919.97;5204231;28;20025;-70
2022/04/12 01:29:36;;;;;;;7.78;2.85;;;;;;;8.30;100.00;100925.31;5204178;28;20453;-72
2022/04/12 01:32:07;;;;;;;8.45;3.28;;;;;;;8.28;100.00;100927.28;5204124;28;20087;-72
2022/04/12 01:34:39;;;;;;;12.60;3.33;;;;;;;8.29;100.00;100910.28;5199968;28;20018;-72
2022/04/12 01:37:09;;;;;;;10.05;3.20;;;;;;;8.34;100.00;100897.31;5200632;28;20029;-71
2022/04/12 01:39:41;;;;;;;7.00;3.30;;;;;;;8.32;100.00;100910.78;5204096;28;20483;-72
2022/04/12 01:42:11;;;;;;;8.32;3.47;;;;;;;8.29;100.00;100919.13;5203959;28;20048;-72
2022/04/12 01:44:47;;;;;;;7.28;3.20;;;;;;;8.27;100.00;100910.41;5204413;28;20045;-71
2022/04/12 01:47:18;;;;;;;8.38;3.22;;;;;;;8.28;100.00;100911.25;5203136;28;20064;-71
2022/04/12 01:49:49;;;;;;;6.70;3.45;;;;;;;8.29;100.00;100910.28;5203749;28;20057;-71
2022/04/12 01:52:19;;;;;;;4.78;3.17;;;;;;;8.27;100.00;100912.22;5204236;28;20063;-71
2022/04/12 01:54:50;;;;;;;6.70;3.72;;;;;;;8.24;100.00;100910.72;5203659;28;20025;-71
2022/04/12 01:57:21;;;;;;;10.65;3.90;;;;;;;8.22;100.00;100911.84;5204017;28;20025;-71
2022/04/12 01:59:57;;;;;;;5.90;3.40;;;;;;;8.25;100.00;100909.72;5203510;28;20032;-71
2022/04/12 02:02:28;;;;;;;5.57;3.65;;;;;;;8.26;100.00;100913.22;5204044;28;20478;-71
2022/04/12 02:04:59;;;;;;;7.30;3.45;;;;;;;8.21;100.00;100904.81;5203566;28;20061;-71
2022/04/12 02:07:30;;;;;;;8.10;3.45;;;;;;;8.10;100.00;100907.69;5204066;28;20481;-70
2022/04/12 02:10:01;;;;;;;8.82;3.80;;;;;;;8.02;100.00;100901.25;5203822;28;20076;-72
2022/04/12 02:12:39;;;;;;;8.73;3.70;;;;;;;7.98;100.00;100899.91;5203539;28;20025;-71
2022/04/12 02:15:12;;;;;;;5.68;3.60;;;;;;;7.93;100.00;100891.47;5203340;28;20018;-71
2022/04/12 02:17:43;;;;;;;5.15;3.42;;;;;;;7.87;100.00;100881.38;5203628;28;20080;-71
2022/04/12 02:20:14;;;;;;;7.68;3.30;;;;;;;7.81;100.00;100889.97;5202549;28;20475;-71
2022/04/12 02:22:44;;;;;;;6.85;4.03;;;;;;;7.77;100.00;100883.25;5201160;28;20044;-71
2022/04/12 02:25:15;;;;;;;7.63;3.45;;;;;;;7.77;100.00;100877.91;5203123;28;20486;-72
2022/04/12 02:27:45;;;;;;;5.75;3.40;;;;;;;7.74;100.00;100867.53;5203528;28;20076;-71
2022/04/12 02:30:16;;;;;;;10.35;3.45;;;;;;;7.69;100.00;100859.13;5203107;28;20026;-71
2022/04/12 02:32:46;;;;;;;11.00;4.25;;;;;;;7.66;100.00;100859.41;5203501;28;20087;-71
2022/04/12 02:35:17;;;;;;;7.03;3.50;;;;;;;7.67;100.00;100856.56;5191235;28;20036;-72
2022/04/12 02:37:47;;;;;;;7.60;4.22;;;;;;;7.66;100.00;100862.06;5203347;28;20105;-72
2022/04/12 02:40:18;;;;;;;5.90;3.88;;;;;;;7.66;100.00;100859.41;5203418;28;20441;-71
2022/04/12 02:42:48;;;;;;;5.97;4.00;;;;;;;7.67;100.00;100850.41;5203339;28;20050;-72
2022/04/12 02:45:19;;;;;;;6.65;3.80;;;;;;;7.64;100.00;100866.72;5203318;28;20028;-72
2022/04/12 02:47:50;;;;;;;9.63;4.28;;;;;;;7.55;100.00;100868.44;5203729;28;20026;-72
2022/04/12 02:50:22;;;;;;;5.85;3.75;;;;;;;7.51;100.00;100869.72;5203022;28;20029;-72
2022/04/12 02:52:53;;;;;;;8.60;3.88;;;;;;;7.51;100.00;100865.22;5203454;28;20036;-72
2022/04/12 02:55:23;;;;;;;8.10;3.70;;;;;;;7.49;100.00;100863.69;5202887;28;20017;-71
2022/04/12 02:57:54;;;;;;;6.32;3.33;;;;;;;7.44;100.00;100869.47;5203338;28;20025;-69
2022/04/12 03:00:24;;;;;;;10.07;3.60;;;;;;;7.36;100.00;100861.31;5206391;28;20025;-69
2022/04/12 03:02:55;;;;;;;11.88;4.28;;;;;;;7.31;100.00;100852.06;5206878;28;20226;-69
2022/04/12 03:05:25;;;;;;;8.10;3.80;;;;;;;7.27;100.00;100843.50;5206937;28;20048;-69
2022/04/12 03:07:56;;;;;;;7.57;3.85;;;;;;;7.23;100.00;100834.97;5205720;28;20381;-69
2022/04/12 03:10:26;;;;;;;9.02;4.20;;;;;;;7.13;100.00;100834.16;5205743;28;20410;-69
2022/04/12 03:12:57;;;;;;;9.98;3.97;;;;;;;7.12;100.00;100828.94;5206448;28;20025;-69
2022/04/12 03:15:27;;;;;;;7.13;4.22;;;;;;;7.08;100.00;100817.75;5206515;28;20032;-69
2022/04/12 03:17:58;;;;;;;7.47;4.43;;;;;;;7.09;100.00;100822.09;5206727;28;20053;-69
2022/04/12 03:20:29;;;;;;;8.52;3.80;;;;;;;7.25;100.00;100814.31;5206714;28;20022;-70
2022/04/12 03:23:00;;;;;;;9.13;4.13;;;;;;;7.38;100.00;100807.78;5204918;28;20048;-69
2022/04/12 03:25:30;;;;;;;12.38;3.95;;;;;;;7.42;100.00;100804.69;5205901;28;20120;-71
2022/04/12 03:28:01;;;;;;;9.68;4.05;;;;;;;7.44;100.00;100825.91;5206520;28;20029;-70
2022/04/12 03:30:32;;;;;;;10.65;4.40;;;;;;;7.40;100.00;100836.03;5206279;28;20026;-71
2022/04/12 03:33:02;;;;;;;11.50;4.43;;;;;;;7.36;100.00;100850.66;5206366;28;20084;-71
2022/04/12 03:35:33;;;;;;;7.57;4.38;;;;;;;7.24;100.00;100854.50;5198646;28;20045;-71
2022/04/12 03:38:03;;;;;;;6.95;3.97;;;;;;;7.17;100.00;100874.72;5206115;28;20084;-70
2022/04/12 03:40:34;;;;;;;5.20;3.53;;;;;;;7.10;100.00;100878.94;5206111;28;20017;-70
2022/04/12 03:43:05;;;;;;;7.95;3.85;;;;;;;7.03;100.00;100880.50;5206301;28;20029;-71
2022/04/12 03:45:35;;;;;;;7.72;4.10;;;;;;;6.95;100.00;100879.38;5206006;28;20025;-71
2022/04/12 03:48:06;;;;;;;7.07;4.07;;;;;;;6.87;100.00;100876.56;5205907;28;20438;-71
2022/04/12 03:50:37;;;;;;;7.07;4.13;;;;;;;6.77;100.00;100873.06;5205586;28;20029;-71
2022/04/12 03:53:07;;;;;;;7.63;4.43;;;;;;;6.72;100.00;100870.00;5206195;28;20105;-70
2022/04/12 03:55:40;;;;;;;8.93;4.05;;;;;;;6.62;100.00;100875.31;5204717;28;20025;-70
2022/04/12 03:58:10;;;;;;;8.38;4.50;;;;;;;6.55;100.00;100876.88;5206047;28;20030;-70
2022/04/12 04:00:41;;;;;;;8.48;3.78;;;;;;;6.47;100.00;100876.72;5205887;28;20033;-71
2022/04/12 04:03:11;;;;;;;7.95;4.10;;;;;;;6.41;100.00;100874.59;5205708;28;20105;-70
2022/04/12 04:05:42;;;;;;;10.80;4.30;;;;;;;6.36;100.00;100875.03;5205373;28;20379;-71
2022/04/12 04:08:12;;;;;;;9.25;4.20;;;;;;;6.31;100.00;100868.44;5205730;28;20057;-71
2022/04/12 04:10:43;;;;;;;8.65;4.30;;;;;;;6.28;100.00;100868.72;5204937;28;20394;-70
2022/04/12 04:13:14;;;;;;;7.93;4.18;;;;;;;6.24;100.00;100868.16;5205537;28;20127;-70
2022/04/12 04:15:46;;;;;;;12.85;5.15;;;;;;;6.19;100.00;100868.56;5205146;28;20028;-71
2022/04/12 04:18:16;;;;;;;9.75;5.15;;;;;;;6.18;100.00;100871.38;5205938;28;20052;-70
2022/04/12 04:20:47;;;;;;;16.08;4.50;;;;;;;6.16;100.00;100866.16;5202620;28;20025;-70
2022/04/12 04:23:17;;;;;;;11.80;5.18;;;;;;;6.12;100.00;100866.56;5205453;28;20044;-70
2022/04/12 04:25:48;;;;;;;10.55;4.68;;;;;;;6.08;100.00;100862.50;5204455;28;20531;-70
2022/04/12 04:28:21;;;;;;;11.98;4.80;;;;;;;6.04;100.00;100853.94;5205273;28;20095;-70
2022/04/12 04:30:52;;;;;;;13.30;5.03;;;;;;;6.02;100.00;100849.72;5205114;28;20026;-70
2022/04/12 04:33:22;;;;;;;11.20;4.82;;;;;;;6.04;100.00;100850.44;5202355;28;20030;-70
2022/04/12 04:35:53;;;;;;;8.18;4.03;;;;;;;6.04;100.00;100853.09;5196885;28;20025;-70
2022/04/12 04:38:23;;;;;;;9.57;4.80;;;;;;;6.03;100.00;100873.56;5204577;28;20474;-71
2022/04/12 04:40:54;;;;;;;12.85;4.78;;;;;;;6.07;100.00;100860.81;5205401;28;20359;-70
2022/04/12 04:43:24;;;;;;;9.32;4.88;;;;;;;6.16;100.00;100860.81;5205135;28;20508;-70
2022/04/12 04:45:55;;;;;;;6.32;4.00;;;;;;;6.22;100.00;100862.09;5204942;28;20036;-70
2022/04/12 04:48:25;;;;;;;8.10;4.28;;;;;;;6.27;100.00;100851.88;5204951;28;20176;-70
2022/04/12 04:50:56;;;;;;;9.77;4.32;;;;;;;6.28;100.00;100853.56;5204624;28;20080;-69
2022/04/12 04:53:26;;;;;;;8.07;4.20;;;;;;;6.33;100.00;100851.34;5204963;28;20067;-70
2022/04/12 04:55:56;;;;;;;13.02;4.53;;;;;;;6.39;100.00;100845.44;5204803;28;20084;-70
2022/04/12 04:58:27;;;;;;;10.63;4.10;;;;;;;6.43;100.00;100846.03;5204789;28;20017;-70
2022/04/12 05:00:58;;;;;;;6.80;4.28;;;;;;;6.45;100.00;100846.72;5204853;28;20033;-70
2022/04/12 05:03:29;;;;;;;9.32;4.22;;;;;;;6.43;100.00;100862.84;5204140;28;20032;-70
2022/04/12 05:05:59;;;;;;;11.38;4.57;;;;;;;6.42;100.00;100862.97;5204516;28;20029;-71
2022/04/12 05:08:30;;;;;;;7.80;3.88;;;;;;;6.44;100.00;100867.19;5204624;28;20057;-70
2022/04/12 05:11:00;;;;;;;8.45;4.63;;;;;;;6.47;100.00;100866.88;5204619;28;20058;-71
2022/04/12 05:13:30;;;;;;;8.23;4.47;;;;;;;6.52;100.00;100865.63;5204761;28;20368;-71
2022/04/12 05:16:01;;;;;;;9.75;4.57;;;;;;;6.52;100.00;100866.47;5204495;28;20387;-71
2022/04/12 05:18:31;;;;;;;12.77;4.32;;;;;;;6.55;100.00;100868.03;5204961;28;20079;-71
2022/04/12 05:21:02;;;;;;;10.77;4.38;;;;;;;6.55;100.00;100855.53;5201843;28;20025;-70
2022/04/12 05:23:33;;;;;;;8.98;4.85;;;;;;;6.63;100.00;100852.19;5203775;28;20036;-71
2022/04/12 05:26:03;;;;;;;8.68;4.40;;;;;;;6.69;100.00;100857.78;5203801;28;20052;-71
2022/04/12 05:28:34;;;;;;;15.48;5.68;;;;;;;6.75;100.00;100867.88;5204054;28;20071;-70
2022/04/12 05:31:04;;;;;;;10.05;3.90;;;;;;;6.82;100.00;100862.81;5204301;28;20053;-70
2022/04/12 05:33:35;;;;;;;9.10;4.43;;;;;;;6.89;100.00;100855.97;5200333;28;20026;-70
2022/04/12 05:36:06;;;;;;;8.25;4.50;;;;;;;6.92;100.00;100853.00;5196315;28;20475;-71
2022/04/12 05:38:36;;;;;;;7.07;4.30;;;;;;;6.97;100.00;100861.41;5203742;28;20467;-71
2022/04/12 05:41:07;;;;;;;12.82;4.20;;;;;;;6.98;100.00;100871.13;5204204;28;20035;-71
2022/04/12 05:43:37;;;;;;;10.93;6.07;;;;;;;7.01;100.00;100867.31;5204042;28;20029;-70
2022/04/12 05:46:08;;;;;;;8.73;4.35;;;;;;;7.04;100.00;100863.53;5204031;28;20013;-70
2022/04/12 05:48:38;;;;;;;7.97;4.47;;;;;;;7.06;100.00;100853.53;5203824;28;20117;-71
2022/04/12 05:51:09;;;;;;;8.95;3.90;;;;;;;7.08;100.00;100857.75;5204036;28;20030;-71
2022/04/12 05:53:39;;;;;;;8.20;4.60;;;;;;;7.13;100.00;100854.63;5203894;28;20462;-70
2022/04/12 05:56:10;;;;;;;9.05;4.25;;;;;;;7.20;100.00;100859.28;5203708;28;20392;-70
2022/04/12 05:58:40;;;;;;;9.35;3.90;;;;;;;7.33;100.00;100858.09;5203913;28;20022;-70
2022/04/12 06:01:11;;;;;;;10.65;4.00;;;;;;;7.48;100.00;100870.84;5203830;28;20340;-70
2022/04/12 06:03:41;;;;;;;9.98;3.70;;;;;;;7.62;100.00;100872.19;5203467;28;20025;-70
2022/04/12 06:06:13;;;;;;;13.48;3.88;;;;;;;7.88;100.00;100871.50;5203463;28;20053;-70
2022/04/12 06:08:43;;;;;;;9.40;4.43;;;;;;;8.50;100.00;100876.09;5203980;28;20021;-70
2022/04/12 06:11:14;;;;;;;11.00;5.05;;;;;;;9.26;100.00;100875.56;5203867;28;20114;-71
2022/04/12 06:13:44;;;;;;;10.60;4.63;;;;;;;9.76;100.00;100877.53;5203927;28;20025;-71
2022/04/12 06:16:15;;;;;;;5.80;3.42;;;;;;;10.16;100.00;100880.53;5203024;28;20475;-71
2022/04/12 06:18:45;;;;;;;5.85;3.58;;;;;;;10.36;100.00;100879.28;5203969;28;20029;-71
2022/04/12 06:21:16;;;;;;;9.43;4.07;;;;;;;10.41;100.00;100881.47;5201075;28;20528;-71
2022/04/12 06:23:46;;;;;;;5.15;3.55;;;;;;;10.30;100.00;100879.94;5203633;28;20021;-71
2022/04/12 06:26:17;;;;;;;9.65;3.90;;;;;;;10.56;100.00;100877.97;5203667;28;20038;-71
2022/04/12 06:28:48;;;;;;;11.35;4.15;;;;;;;10.99;100.00;100881.34;5202895;28;20026;-71
2022/04/12 06:31:18;;;;;;;8.18;4.05;;;;;;;11.77;100.00;100885.25;5203838;28;20087;-71
2022/04/12 06:33:48;;;;;;;6.15;3.42;;;;;;;12.30;100.00;100884.56;5201196;28;20044;-71
2022/04/12 06:36:19;;;;;;;8.73;3.80;;;;;;;12.89;100.00;100879.44;5199753;28;20064;-70
2022/04/12 06:38:50;;;;;;;7.80;4.05;;;;;;;13.24;100.00;100879.84;5207347;28;20029;-71
2022/04/12 06:41:21;;;;;;;8.57;3.70;;;;;;;13.53;100.00;100878.22;5207185;28;20104;-72
2022/04/12 06:43:51;;;;;;;7.50;3.65;;;;;;;13.94;100.00;100876.72;5207481;28;20100;-71
2022/04/12 06:46:22;;;;;;;7.97;3.88;;;;;;;13.95;100.00;100877.56;5207093;28;20033;-71
2022/04/12 06:48:53;;;;;;;7.07;3.42;;;;;;;14.15;100.00;100881.34;5207068;28;20014;-72
2022/04/12 06:51:24;;;;;;;7.15;3.55;;;;;;;14.31;100.00;100882.16;5205840;28;20406;-72
2022/04/12 06:53:54;;;;;;;6.57;3.60;;;;;;;14.31;100.00;100880.31;5206918;28;20036;-71
2022/04/12 06:56:27;;;;;;;5.35;3.40;;;;;;;14.26;100.00;100890.84;5207541;28;20327;-71
2022/04/12 06:58:57;;;;;;;7.38;3.50;;;;;;;13.89;100.00;100889.94;5207137;28;20497;-72
2022/04/12 07:01:28;;;;;;;7.35;3.97;;;;;;;13.78;100.00;100893.09;5206805;28;20025;-71
2022/04/12 07:03:58;;;;;;;7.70;3.58;;;;;;;13.62;100.00;100898.69;5206598;28;20112;-72
2022/04/12 07:06:28;;;;;;;5.38;3.60;;;;;;;13.83;100.00;100897.94;5206398;28;20032;-71
2022/04/12 07:08:59;;;;;;;8.65;3.38;;;;;;;14.01;100.00;100901.09;5207166;28;20021;-71
2022/04/12 07:11:29;;;;;;;7.82;3.55;;;;;;;14.36;100.00;100904.03;5206965;28;20025;-71
2022/04/12 07:14:00;;;;;;;6.85;3.15;;;;;;;14.55;100.00;100897.19;5206909;28;20104;-72
2022/04/12 07:16:30;;;;;;;4.35;2.85;;;;;;;14.63;100.00;100911.41;5206286;28;20162;-72
2022/04/12 07:19:01;;;;;;;5.25;2.85;;;;;;;15.02;100.00;100907.47;5206534;28;20126;-72
2022/04/12 07:21:31;;;;;;;8.35;2.83;;;;;;;15.37;100.00;100912.94;5204209;28;20475;-72
2022/04/12 07:24:04;;;;;;;5.22;2.78;;;;;;;15.11;100.00;100921.66;5206630;28;20037;-72
2022/04/12 07:26:35;;;;;;;4.63;2.72;;;;;;;15.36;100.00;100922.94;5206269;28;20405;-72
2022/04/12 07:29:05;;;;;;;6.80;2.90;;;;;;;15.77;100.00;100914.94;5206025;28;20017;-72
2022/04/12 07:31:36;;;;;;;5.28;2.70;;;;;;;15.76;100.00;100910.56;5206672;28;20049;-72
2022/04/12 07:34:07;;;;;;;5.13;2.90;;;;;;;15.88;100.00;100910.81;5202115;28;20108;-72
2022/04/12 07:36:39;;;;;;;5.88;2.53;;;;;;;15.46;100.00;100915.31;5198329;28;20025;-72
2022/04/12 07:39:10;;;;;;;5.82;2.30;;;;;;;15.64;100.00;100906.72;5206435;28;20040;-72
2022/04/12 07:41:40;;;;;;;4.32;2.42;;;;;;;15.88;100.00;100896.47;5205972;28;20025;-72
2022/04/12 07:44:12;;;;;;;6.28;2.45;;;;;;;15.60;100.00;100897.28;5206342;28;20036;-72
2022/04/12 07:46:42;;;;;;;6.85;2.47;;;;;;;15.31;100.00;100898.31;5205028;28;20156;-73
2022/04/12 07:49:13;;;;;;;6.28;3.08;;;;;;;15.80;100.00;100900.16;5205093;28;20022;-72
2022/04/12 07:51:43;;;;;;;3.33;2.38;;;;;;;16.41;100.00;100886.69;5206097;28;20091;-72
2022/04/12 07:54:14;;;;;;;3.28;2.03;;;;;;;16.80;100.00;100883.28;5205606;28;20036;-73
2022/04/12 07:56:44;;;;;;;5.32;2.67;;;;;;;17.00;100.00;100879.75;5206191;28;20075;-72
2022/04/12 07:59:15;;;;;;;6.55;2.50;;;;;;;17.08;100.00;100871.44;5194644;28;20017;-72
2022/04/12 08:01:45;;;;;;;5.55;2.53;;;;;;;17.27;98.48;100864.31;5201764;28;20022;-72
2022/04/12 08:04:16;;;;;;;5.25;2.55;;;;;;;16.85;100.00;100860.16;5200621;28;20565;-72
2022/04/12 08:06:46;;;;;;;7.85;2.65;;;;;;;16.66;100.00;100867.16;5205067;28;20091;-72
2022/04/12 08:09:17;;;;;;;9.82;2.42;;;;;;;16.36;100.00;100875.63;5205808;28;20036;-72
2022/04/12 08:11:47;;;;;;;8.57;2.45;;;;;;;16.60;100.00;100887.78;5205993;28;20037;-72
2022/04/12 08:14:18;;;;;;;12.18;3.05;;;;;;;17.06;100.00;100874.31;5203172;28;20033;-72
2022/04/12 08:16:48;;;;;;;8.50;2.72;;;;;;;17.11;100.00;100876.41;5197685;28;20108;-72
2022/04/12 08:19:19;;;;;;;4.68;2.58;;;;;;;16.82;100.00;100881.22;5205265;28;20030;-72
2022/04/12 08:21:49;;;;;;;3.92;2.53;;;;;;;17.21;100.00;100876.84;5205419;28;20021;-72
2022/04/12 08:24:21;;;;;;;3.33;2.08;;;;;;;17.31;100.00;100877.25;5205611;28;20033;-72
2022/04/12 08:26:52;;;;;;;5.85;2.65;;;;;;;17.67;100.00;100875.97;5205450;28;20438;-73
2022/04/12 08:29:22;;;;;;;6.78;2.63;;;;;;;17.58;95.41;100871.81;5205060;28;20025;-72
2022/04/12 08:31:53;;;;;;;9.68;2.58;;;;;;;17.88;100.00;100864.03;5201395;28;20068;-72
2022/04/12 08:34:23;;;;;;;7.28;3.05;;;;;;;17.76;99.06;100865.72;5205270;28;20036;-73
2022/04/12 08:36:54;;;;;;;7.55;2.85;;;;;;;17.97;100.00;100872.75;5205399;28;20456;-73
2022/04/12 08:39:24;;;;;;;5.70;2.60;;;;;;;18.18;97.01;100875.19;5205339;28;20562;-72
2022/04/12 08:41:57;;;;;;;7.55;2.75;;;;;;;18.07;97.93;100873.13;5204991;28;20439;-72
2022/04/12 08:44:28;;;;;;;9.35;3.13;;;;;;;18.28;100.00;100882.88;5204850;28;20028;-73
2022/04/12 08:47:03;;;;;;;6.68;2.40;;;;;;;18.19;95.51;100865.16;5205280;28;20025;-72
2022/04/12 08:49:38;;;;;;;3.92;2.70;;;;;;;18.37;96.62;100860.69;5204687;28;20033;-72
2022/04/12 08:52:11;;;;;;;5.07;2.42;;;;;;;18.41;95.69;100854.81;5205001;28;20051;-72
2022/04/12 08:54:44;;;;;;;5.90;2.38;;;;;;;18.53;94.26;100853.09;5204238;28;20037;-72
2022/04/12 08:57:14;;;;;;;3.85;2.42;;;;;;;18.69;94.37;100847.16;5204730;28;20037;-72
2022/04/12 08:59:46;;;;;;;8.50;2.35;;;;;;;18.60;92.92;100843.00;5191408;28;20018;-72
2022/04/12 09:02:17;;;;;;;11.82;2.88;;;;;;;18.91;93.67;100850.31;5204933;28;20079;-72
2022/04/12 09:04:47;;;;;;;5.72;2.42;;;;;;;19.14;94.89;100839.69;5204462;28;20478;-73
2022/04/12 09:07:24;;;;;;;7.75;2.60;;;;;;;19.21;92.08;100839.63;5204772;28;20116;-72
2022/04/12 09:10:06;;;;;;;6.78;2.53;;;;;;;19.37;91.46;100841.75;5204596;28;20112;-72
2022/04/12 09:12:37;;;;;;;5.95;2.72;;;;;;;19.14;90.54;100836.13;5204545;28;20040;-73
2022/04/12 09:15:10;;;;;;;9.18;2.33;;;;;;;19.11;91.71;100840.13;5204641;28;20442;-73
2022/04/12 09:17:44;;;;;;;5.40;2.50;;;;;;;19.25;92.20;100834.56;5204279;28;20044;-73
2022/04/12 09:20:18;;;;;;;4.82;2.42;;;;;;;19.65;93.85;100824.97;5204775;28;20021;-72
2022/04/12 09:22:50;;;;;;;8.23;2.53;;;;;;;20.22;91.03;100830.13;5204464;28;20434;-73
2022/04/12 09:25:21;;;;;;;3.45;2.28;;;;;;;20.60;85.35;100821.66;5204452;28;20386;-73
2022/04/12 09:27:51;;;;;;;5.78;2.55;;;;;;;19.75;85.62;100824.44;5204229;28;20018;-73
2022/04/12 09:30:22;;;;;;;7.50;2.40;;;;;;;19.74;94.36;100825.50;5203995;28;20021;-72
2022/04/12 09:32:53;;;;;;;4.10;2.25;;;;;;;19.71;86.63;100828.66;5204488;28;20502;-72
2022/04/12 09:35:23;;;;;;;5.38;2.53;;;;;;;19.07;92.53;100838.88;5204188;28;20091;-73
2022/04/12 09:37:54;;;;;;;6.20;2.53;;;;;;;18.91;92.50;100839.44;5204512;28;20057;-73
2022/04/12 09:40:25;;;;;;;6.35;2.38;;;;;;;18.69;91.22;100836.28;5203818;28;20060;-73
2022/04/12 09:42:58;;;;;;;4.95;2.40;;;;;;;18.55;92.52;100840.09;5204399;28;20025;-72
2022/04/12 09:45:30;;;;;;;11.98;2.35;;;;;;;18.16;93.44;100825.69;5204229;28;20036;-72
2022/04/12 09:48:03;;;;;;;6.63;2.28;;;;;;;18.28;100.00;100818.53;5204404;28;20048;-72
2022/04/12 09:50:34;;;;;;;12.70;2.58;;;;;;;18.99;93.88;100816.59;5204034;28;20076;-73
2022/04/12 09:53:06;;;;;;;5.35;2.38;;;;;;;19.33;95.26;100820.69;5203786;28;20065;-72
2022/04/12 09:55:40;;;;;;;6.50;2.20;;;;;;;19.92;95.57;100819.19;5204005;28;20059;-72
2022/04/12 09:58:14;;;;;;;4.32;2.22;;;;;;;20.27;90.47;100822.09;5204115;28;20029;-73
2022/04/12 10:00:47;;;;;;;4.85;2.45;;;;;;;19.88;90.30;100835.19;5203592;28;20032;-73
2022/04/12 10:03:19;;;;;;;7.20;2.83;;;;;;;19.58;88.25;100856.00;5204111;28;20426;-72
2022/04/12 10:05:51;;;;;;;8.50;2.30;;;;;;;19.56;89.13;100858.09;5203589;28;20076;-73
2022/04/12 10:08:24;;;;;;;7.13;2.38;;;;;;;19.47;88.18;100852.13;5203875;28;20029;-73
2022/04/12 10:10:54;;;;;;;6.50;2.40;;;;;;;19.57;94.09;100844.28;5208117;28;20028;-73
2022/04/12 10:13:26;;;;;;;5.47;2.08;;;;;;;19.44;98.80;100835.44;5208329;28;20425;-72
2022/04/12 10:15:58;;;;;;;7.47;2.42;;;;;;;19.52;95.67;100824.25;5207344;28;20029;-72
2022/04/12 10:18:31;;;;;;;8.45;2.80;;;;;;;19.23;91.67;100814.91;5208152;28;20043;-73
2022/04/12 10:21:02;;;;;;;6.22;2.58;;;;;;;19.55;88.71;100815.63;5208031;28;20025;-72
2022/04/12 10:23:33;;;;;;;9.13;2.33;;;;;;;19.60;100.00;100832.16;5208664;28;20461;-73
2022/04/12 10:26:06;;;;;;;5.68;2.42;;;;;;;19.89;96.19;100828.66;5207434;28;20033;-74
2022/04/12 10:28:37;;;;;;;6.82;2.42;;;;;;;19.87;88.75;100829.94;5207387;28;20367;-73
2022/04/12 10:31:30;;;;;;;14.98;2.83;;;;;;;19.77;91.83;100833.19;5208236;28;20053;-72
2022/04/12 10:34:01;;;;;;;5.68;2.15;;;;;;;19.91;98.57;100829.25;5207866;28;20108;-73
2022/04/12 10:37:08;;;;;;;5.05;2.38;;;;;;;19.67;94.93;100822.00;5207319;28;20498;-73
2022/04/12 10:40:14;;;;;;;7.40;2.72;;;;;;;19.58;90.79;100816.03;5207433;28;20021;-73
2022/04/12 10:42:45;;;;;;;4.00;2.17;;;;;;;19.76;89.47;100801.59;5197840;28;20025;-74
2022/04/12 10:45:15;;;;;;;5.43;2.40;;;;;;;20.12;93.01;100791.72;5207070;28;20027;-73
2022/04/12 10:47:46;;;;;;;7.65;2.88;;;;;;;19.87;92.60;100789.94;5207723;28;20075;-73
2022/04/12 10:50:17;;;;;;;4.57;2.00;;;;;;;19.64;90.24;100800.72;5207217;28;20024;-73
2022/04/12 10:52:48;;;;;;;7.97;2.42;;;;;;;19.71;87.41;100792.47;5207386;28;20065;-73
2022/04/12 10:55:23;;;;;;;7.15;2.35;;;;;;;19.59;88.15;100803.25;5206868;28;20443;-73
2022/04/12 10:58:25;;;;;;;5.55;2.67;;;;;;;19.74;92.13;100798.28;5207416;28;20036;-73
2022/04/12 11:00:56;;;;;;;5.03;2.55;;;;;;;19.62;87.45;100798.19;5193638;28;20469;-73
2022/04/12 11:04:05;;;;;;;5.47;2.60;;;;;;;19.39;91.95;100792.59;5206092;28;20041;-73
2022/04/12 11:06:35;;;;;;;7.38;2.75;;;;;;;19.60;87.22;100804.94;5197454;28;20095;-73
2022/04/12 11:09:05;;;;;;;6.78;2.95;;;;;;;19.82;91.69;100797.13;5206961;28;20029;-73
2022/04/12 11:11:41;;;;;;;8.15;2.60;;;;;;;20.01;91.40;100787.88;5207011;28;20025;-73
2022/04/12 11:14:26;;;;;;;8.85;2.65;;;;;;;19.98;88.10;100796.53;5206556;28;20039;-73
2022/04/12 11:17:00;;;;;;;;;;;;;;;19.98;85.79;100798.38;5207534;28;20061;-73
2022/04/12 11:19:45;;;;;;;7.30;2.20;;;;;;;20.39;92.83;100803.09;5206868;28;19995;-73
2022/04/12 11:22:18;;;;;;;8.38;1.95;;;;;;;20.59;82.76;100800.91;5206719;28;20151;-74
2022/04/12 11:25:19;;;;;;;9.10;2.10;;;;;;;20.67;83.15;100797.00;5206429;28;20044;-73
2022/04/12 11:28:09;;;;;;;6.38;2.10;;;;;;;20.69;82.18;100792.16;5206758;28;20029;-73
2022/04/12 11:30:39;;;;;;;8.65;2.03;;;;;;;20.60;81.88;100782.66;5205943;28;20021;-73
2022/04/12 11:33:10;;;;;;;5.07;2.00;;;;;;;20.36;80.64;100774.41;5206468;28;20072;-73
2022/04/12 11:35:42;;;;;;;4.22;1.77;;;;;;;20.63;83.45;100765.81;5206525;28;20064;-73
2022/04/12 11:38:12;;;;;;;4.38;2.05;;;;;;;20.62;81.41;100772.34;5206665;28;20025;-74
2022/04/12 11:40:44;;;;;;;22.65;2.92;;;;;;;20.60;81.57;100772.59;5206334;28;20025;-74
2022/04/12 11:43:33;;;;;;;4.47;1.80;;;;;;;20.11;81.91;100771.81;5206231;28;20074;-73
2022/04/12 11:46:03;;;;;;;10.43;1.92;;;;;;;20.26;83.43;100765.94;5206337;28;20018;-73